Curtin Springs, Northern Territory

11:36 AM ACST on October 26, 2014 (GMT +0930)
Ayers Rock (Connellan) | Change Station
CLOSE
Current Station
Airport
Location: Ayers Rock,
Elevation: 1627 ft
Nearby Weather Stations

Elev 1627 ft 25.19 °S, 130.98 °E | Updated 6 minutes ago

Clear
Clear
100 °F
Feels Like 100 °F
N
18
Wind Variable Wind from NNW

Today
High -- | Low -- °F
--% Chance of Precip.
Yesterday
High -- | Low -- °F
Precip. -- in
5:59 AM 6:54 PM
Waxing Crescent, 5% visible
Pressure 29.98 in
Visibility 6.2 miles
Clouds
Dew Point 34 °F
Humidity 10%
Rainfall 0.00 in
Snow Depth Not available.
UV Not available.
Pollen Not available.
Air Quality Not available.
Flu Activity Not available.
METAR YAYE 260200Z AUTO 34016KT 9999 // NCD 38/01 Q1015

More Conditions Fewer Conditions

Pressure 29.98 in
Visibility 6.2 miles
Clouds
Dew Point 34 °F
Humidity 10%
Rainfall 0.00 in
Snow Depth Not available.
UV Not available.
Pollen Not available.
Air Quality Not available.
Flu Activity Not available.
METAR YAYE 260200Z AUTO 34016KT 9999 // NCD 38/01 Q1015

More Conditions Fewer Conditions

10-Day Weather Forecast

Almanac

Astronomy

Oct. 26, 2014 Rise Set
Actual Time 5:59 AM ACST 6:54 PM ACST
Civil Twilight 5:35 AM ACST 7:18 PM ACST
Nautical Twilight 5:07 AM ACST 7:46 PM ACST
Astronomical Twilight 4:39 AM ACST 8:15 PM ACST
Moon 7:34 AM ACST 9:07 PM ACST
Length of Visible Light 13h 42m
Length of Day
12h 55m
Tomorrow will be 1m 23s longer.
Waxing Crescent, 5% of the Moon is Illuminated
Oct 25
Waxing Crescent
Oct 30
First Quarter
Nov 6
Full
Nov 14
Last Quarter
Nov 22
New

Yesterday's Extremes

Country Highs Country Lows

Community

WunderPhotos

Upload Photos

1,765,080 photos uploaded!

Nearby

Snow Depth

Not available.

Earthquake Activity

City Distance Mag. Time & Date
No recent earthquake activity has been reported nearby.
Minimum magnitude displayed is 2.5.

Coastal Water Temperatures

Place Temperature
No Stations Reporting

Nearby Weather Stations